createdAt,value
2022-08-09T00:00:04.690Z,16.17
2022-08-09T00:02:35.949Z,16.16
2022-08-09T00:06:16.302Z,16.13
2022-08-09T00:07:55.473Z,16.13
2022-08-09T00:10:29.732Z,16.02
2022-08-09T00:12:59.677Z,16.05
2022-08-09T00:15:57.678Z,16.03
2022-08-09T00:18:18.222Z,16.01
2022-08-09T00:20:50.262Z,15.98
2022-08-09T00:23:55.460Z,15.93
2022-08-09T00:26:11.158Z,15.89
2022-08-09T00:28:41.183Z,15.89
2022-08-09T00:31:57.651Z,15.86
2022-08-09T00:34:00.271Z,15.84
2022-08-09T00:36:31.845Z,15.83
2022-08-09T00:39:01.767Z,15.83
2022-08-09T00:44:13.639Z,15.82
2022-08-09T00:44:27.341Z,15.78
2022-08-09T00:47:05.397Z,15.70
2022-08-09T00:49:36.809Z,15.69
2022-08-09T00:52:15.950Z,15.66
2022-08-09T00:54:48.596Z,15.66
2022-08-09T00:57:24.716Z,15.65
2022-08-09T01:00:20.508Z,15.61
2022-08-09T01:02:57.452Z,15.55
2022-08-09T01:05:51.069Z,15.52
2022-08-09T01:08:31.956Z,15.47
2022-08-09T01:11:18.039Z,15.44
2022-08-09T01:14:01.679Z,15.42
2022-08-09T01:16:47.404Z,15.40
2022-08-09T01:20:14.419Z,15.41
2022-08-09T01:23:04.896Z,15.38
2022-08-09T01:26:04.824Z,15.34
2022-08-09T01:28:34.504Z,15.33
2022-08-09T01:31:06.090Z,15.29
2022-08-09T01:33:40.231Z,15.26
2022-08-09T01:36:15.873Z,15.20
2022-08-09T01:38:48.462Z,15.17
2022-08-09T01:41:28.780Z,15.12
2022-08-09T01:43:59.905Z,15.05
2022-08-09T01:46:32.380Z,15.03
2022-08-09T01:49:09.440Z,15.04
2022-08-09T01:51:42.806Z,15.02
2022-08-09T01:54:14.028Z,15.01
2022-08-09T01:56:51.509Z,15.01
2022-08-09T01:59:22.986Z,14.98
2022-08-09T02:01:59.898Z,14.95
2022-08-09T02:04:31.435Z,14.92
2022-08-09T02:07:18.566Z,14.88
2022-08-09T02:10:05.648Z,14.85
2022-08-09T02:12:36.736Z,14.81
2022-08-09T02:15:15.387Z,14.78
2022-08-09T02:18:09.389Z,14.77
2022-08-09T02:20:38.983Z,14.74
2022-08-09T02:23:21.194Z,14.71
2022-08-09T02:25:55.767Z,14.70
2022-08-09T02:28:30.444Z,14.67
2022-08-09T02:31:10.913Z,14.66
2022-08-09T02:34:07.556Z,14.65
2022-08-09T02:36:41.898Z,14.63
2022-08-09T02:39:20.003Z,14.62
2022-08-09T02:42:07.032Z,14.58
2022-08-09T02:44:44.443Z,14.55
2022-08-09T02:47:15.426Z,14.53
2022-08-09T02:50:01.136Z,14.49
2022-08-09T02:52:35.376Z,14.44
2022-08-09T02:55:19.813Z,14.39
2022-08-09T02:58:32.626Z,14.40
2022-08-09T03:00:57.598Z,14.39
2022-08-09T03:04:12.765Z,14.39
2022-08-09T03:06:18.853Z,14.35
2022-08-09T03:08:52.397Z,14.34
2022-08-09T03:12:04.649Z,14.29
2022-08-09T03:14:14.150Z,14.24
2022-08-09T03:16:48.322Z,14.23
2022-08-09T03:19:59.000Z,14.21
2022-08-09T03:22:12.275Z,14.17
2022-08-09T03:25:19.840Z,14.14
2022-08-09T03:27:52.340Z,14.09
2022-08-09T03:30:30.045Z,14.06
2022-08-09T03:33:17.616Z,14.03
2022-08-09T03:36:15.858Z,14.02
2022-08-09T03:38:44.931Z,14.01
2022-08-09T03:41:18.353Z,14.02
2022-08-09T03:43:51.630Z,14.02
2022-08-09T03:46:29.456Z,14.03
2022-08-09T03:49:09.035Z,14.01
2022-08-09T03:51:58.711Z,14.04
2022-08-09T03:54:34.637Z,14.06
2022-08-09T03:57:18.078Z,14.06
2022-08-09T03:59:54.771Z,14.03
2022-08-09T04:02:28.264Z,13.99
2022-08-09T04:05:00.856Z,13.98
2022-08-09T04:07:33.778Z,13.95
2022-08-09T04:10:28.932Z,13.94
2022-08-09T04:13:09.379Z,13.94
2022-08-09T04:16:18.641Z,13.94
2022-08-09T04:18:30.511Z,13.88
2022-08-09T04:21:01.519Z,13.89
2022-08-09T04:23:33.254Z,13.92
2022-08-09T04:26:02.868Z,13.89
2022-08-09T04:28:34.383Z,13.91
2022-08-09T04:31:09.311Z,13.93
2022-08-09T04:33:47.568Z,13.94
2022-08-09T04:36:24.269Z,13.97
2022-08-09T04:38:53.809Z,14.00
2022-08-09T04:41:32.008Z,14.01
2022-08-09T04:44:06.621Z,14.01
2022-08-09T04:46:58.287Z,13.97
2022-08-09T04:49:53.792Z,14.01
2022-08-09T04:52:26.521Z,14.00
2022-08-09T04:55:00.295Z,14.05
2022-08-09T04:57:53.943Z,14.09
2022-08-09T05:00:19.604Z,14.17
2022-08-09T05:02:52.875Z,14.21
2022-08-09T05:05:32.096Z,14.25
2022-08-09T05:08:14.751Z,14.30
2022-08-09T05:10:44.769Z,14.39
2022-08-09T05:13:14.578Z,14.47
2022-08-09T05:15:48.063Z,14.55
2022-08-09T05:18:50.918Z,14.63
2022-08-09T05:21:24.703Z,14.71
2022-08-09T05:24:02.241Z,14.82
2022-08-09T05:26:45.496Z,14.92
2022-08-09T05:29:21.771Z,15.01
2022-08-09T05:31:58.362Z,15.10
2022-08-09T05:34:32.946Z,15.21
2022-08-09T05:37:11.480Z,15.29
2022-08-09T05:39:44.608Z,15.42
2022-08-09T05:42:16.911Z,15.54
2022-08-09T05:44:47.670Z,15.66
2022-08-09T05:47:21.716Z,15.77
2022-08-09T05:50:25.733Z,15.88
2022-08-09T05:52:53.462Z,16.00
2022-08-09T05:55:24.227Z,16.15
2022-08-09T05:57:56.829Z,16.35
2022-08-09T06:00:29.529Z,16.53
2022-08-09T06:03:10.940Z,16.85
2022-08-09T06:05:57.037Z,17.11
2022-08-09T06:08:34.395Z,17.49
2022-08-09T06:11:17.486Z,17.76
2022-08-09T06:13:47.629Z,17.98
2022-08-09T06:16:17.168Z,18.08
2022-08-09T06:18:46.413Z,18.23
2022-08-09T06:21:16.341Z,18.37
2022-08-09T06:23:58.401Z,18.43
2022-08-09T06:26:31.573Z,18.56
2022-08-09T06:29:05.465Z,18.65
2022-08-09T06:31:39.937Z,18.75
2022-08-09T06:34:26.376Z,18.87
2022-08-09T06:37:00.179Z,18.95
2022-08-09T06:39:48.181Z,19.08
2022-08-09T06:42:24.708Z,19.18
2022-08-09T06:44:57.778Z,19.24
2022-08-09T06:47:30.047Z,19.34
2022-08-09T06:50:14.076Z,19.48
2022-08-09T06:52:51.760Z,19.65
2022-08-09T06:55:26.452Z,19.85
2022-08-09T06:58:02.828Z,20.01
2022-08-09T07:00:57.405Z,20.15
2022-08-09T07:03:28.834Z,20.36
2022-08-09T07:06:04.590Z,20.56
2022-08-09T07:08:34.445Z,20.81
2022-08-09T07:11:06.629Z,21.02
2022-08-09T07:14:03.667Z,21.30
2022-08-09T07:16:44.011Z,21.63
2022-08-09T07:19:23.152Z,21.90
2022-08-09T07:21:57.867Z,22.10
2022-08-09T07:24:32.065Z,22.35
2022-08-09T07:27:10.945Z,22.64
2022-08-09T07:29:59.635Z,22.89
2022-08-09T07:32:33.696Z,23.11
2022-08-09T07:35:10.170Z,23.36
2022-08-09T07:37:42.778Z,23.66
2022-08-09T07:40:17.364Z,23.97
2022-08-09T07:43:07.073Z,24.33
2022-08-09T07:45:46.421Z,24.61
2022-08-09T07:48:25.582Z,24.82
2022-08-09T07:52:02.424Z,25.07
2022-08-09T07:54:06.552Z,25.33
2022-08-09T07:56:44.640Z,25.47
2022-08-09T07:59:25.000Z,25.63
2022-08-09T08:02:05.444Z,25.78
2022-08-09T08:04:36.536Z,25.96
2022-08-09T08:07:15.231Z,26.18
2022-08-09T08:10:08.791Z,26.38
2022-08-09T08:12:44.000Z,26.59
2022-08-09T08:15:17.559Z,26.87
2022-08-09T08:17:54.610Z,26.83
2022-08-09T08:20:32.461Z,27.04
2022-08-09T08:23:15.779Z,27.27
2022-08-09T08:25:49.863Z,27.50
2022-08-09T08:28:32.218Z,27.44
2022-08-09T08:31:13.995Z,27.46
2022-08-09T08:33:52.143Z,27.54
2022-08-09T08:36:28.761Z,27.71
2022-08-09T08:38:58.629Z,27.82
2022-08-09T08:41:50.784Z,27.96
2022-08-09T08:44:23.084Z,27.92
2022-08-09T08:47:02.364Z,27.84
2022-08-09T08:49:46.348Z,27.92
2022-08-09T08:55:09.022Z,28.04
2022-08-09T08:57:38.373Z,28.10
2022-08-09T09:00:17.312Z,28.26
2022-08-09T09:03:08.744Z,28.32
2022-08-09T09:06:00.755Z,28.06
2022-08-09T09:08:40.700Z,27.91
2022-08-09T09:11:19.731Z,28.02
2022-08-09T09:13:57.586Z,27.91
2022-08-09T09:16:34.598Z,27.59
2022-08-09T09:22:02.736Z,27.52
2022-08-09T09:24:38.035Z,27.50
2022-08-09T09:27:22.065Z,27.62
2022-08-09T09:30:10.534Z,27.57
2022-08-09T09:32:43.699Z,27.43
2022-08-09T09:35:15.910Z,27.38
2022-08-09T09:37:48.455Z,27.32
2022-08-09T09:40:18.032Z,27.28
2022-08-09T09:42:58.127Z,27.32
2022-08-09T09:45:29.305Z,27.35
2022-08-09T09:47:59.575Z,27.30
2022-08-09T09:50:50.658Z,27.31
2022-08-09T09:53:43.871Z,27.16
2022-08-09T09:56:31.212Z,26.95
2022-08-09T09:59:02.707Z,26.94
2022-08-09T10:01:37.975Z,27.10
2022-08-09T10:04:30.615Z,27.03
2022-08-09T10:07:03.574Z,26.91
2022-08-09T10:09:54.988Z,26.69
2022-08-09T10:12:29.642Z,26.44
2022-08-09T10:15:25.642Z,26.46
2022-08-09T10:18:13.711Z,26.46
2022-08-09T10:20:45.164Z,26.46
2022-08-09T10:23:21.292Z,26.46
2022-08-09T10:26:06.307Z,26.49
2022-08-09T10:28:38.972Z,26.40
2022-08-09T10:34:11.162Z,26.09
2022-08-09T10:36:56.332Z,25.94
2022-08-09T10:39:28.709Z,25.83
2022-08-09T10:41:58.563Z,25.78
2022-08-09T10:44:30.528Z,25.76
2022-08-09T10:48:12.059Z,25.78
2022-08-09T10:50:30.691Z,25.83
2022-08-09T10:53:10.400Z,25.83
2022-08-09T10:55:58.655Z,25.83
2022-08-09T10:58:34.890Z,25.82
2022-08-09T11:03:02.982Z,25.77
2022-08-09T11:04:19.714Z,25.82
2022-08-09T11:07:03.027Z,25.86
2022-08-09T11:09:48.027Z,25.83
2022-08-09T11:12:29.454Z,25.76
2022-08-09T11:15:04.818Z,25.69
2022-08-09T11:17:34.424Z,25.64
2022-08-09T11:20:22.496Z,25.54
2022-08-09T11:22:58.428Z,25.55
2022-08-09T11:25:36.197Z,25.69
2022-08-09T11:28:38.613Z,26.05
2022-08-09T11:31:49.774Z,26.35
2022-08-09T11:34:36.296Z,26.64
2022-08-09T11:37:07.476Z,26.82
2022-08-09T11:40:04.219Z,26.87
2022-08-09T11:42:49.332Z,26.85
2022-08-09T11:45:22.591Z,26.74
2022-08-09T11:48:01.445Z,26.66
2022-08-09T11:52:49.559Z,26.68
2022-08-09T11:54:01.818Z,26.78
2022-08-09T11:56:41.904Z,26.82
2022-08-09T11:59:14.335Z,26.82
2022-08-09T12:02:18.215Z,26.93
2022-08-09T12:04:37.454Z,27.02
2022-08-09T12:07:08.474Z,27.09
2022-08-09T12:09:38.986Z,27.09
2022-08-09T12:12:28.667Z,27.14
2022-08-09T12:15:04.163Z,27.27
2022-08-09T12:17:43.419Z,27.38
2022-08-09T12:20:21.721Z,27.47
2022-08-09T12:22:55.828Z,27.50
2022-08-09T12:25:31.906Z,27.60
2022-08-09T12:29:13.651Z,27.52
2022-08-09T12:31:10.927Z,27.36
2022-08-09T12:33:59.238Z,27.32
2022-08-09T12:36:33.608Z,27.35
2022-08-09T12:39:05.312Z,27.26
2022-08-09T12:41:39.994Z,27.13
2022-08-09T12:44:12.974Z,27.03
2022-08-09T12:46:50.103Z,26.93
2022-08-09T12:49:21.439Z,26.93
2022-08-09T12:52:02.511Z,26.93
2022-08-09T12:56:12.616Z,26.92
2022-08-09T12:57:46.259Z,26.92
2022-08-09T13:00:25.516Z,26.96
2022-08-09T13:03:00.603Z,27.00
2022-08-09T13:05:50.870Z,27.00
2022-08-09T13:08:39.685Z,26.98
2022-08-09T13:11:23.096Z,27.02
2022-08-09T13:14:42.916Z,27.14
2022-08-09T13:16:51.967Z,27.27
2022-08-09T13:20:09.041Z,27.37
2022-08-09T13:22:37.022Z,27.32
2022-08-09T13:25:19.010Z,27.26
2022-08-09T13:27:55.820Z,27.26
2022-08-09T13:30:50.280Z,27.26
2022-08-09T13:33:52.240Z,27.36
2022-08-09T13:36:24.639Z,27.50
2022-08-09T13:39:34.162Z,27.64
2022-08-09T13:42:01.044Z,27.67
2022-08-09T13:44:31.344Z,27.69
2022-08-09T13:47:29.049Z,27.67
2022-08-09T13:49:57.207Z,27.68
2022-08-09T13:52:30.347Z,27.78
2022-08-09T13:55:04.658Z,27.82
2022-08-09T13:57:40.723Z,27.75
2022-08-09T14:00:15.922Z,27.64
2022-08-09T14:03:03.415Z,27.55
2022-08-09T14:05:57.411Z,27.45
2022-08-09T14:08:28.199Z,27.34
2022-08-09T14:11:00.267Z,27.29
2022-08-09T14:14:23.158Z,27.25
2022-08-09T14:16:28.727Z,27.20
2022-08-09T14:18:59.539Z,27.15
2022-08-09T14:21:31.857Z,27.15
2022-08-09T14:24:10.469Z,27.12
2022-08-09T14:26:51.962Z,27.22
2022-08-09T14:30:15.212Z,27.30
2022-08-09T14:32:13.158Z,27.34
2022-08-09T14:34:45.748Z,27.34
2022-08-09T14:37:15.145Z,27.37
2022-08-09T14:39:48.571Z,27.43
2022-08-09T14:42:28.746Z,27.42
2022-08-09T14:46:39.706Z,27.42
2022-08-09T14:47:58.708Z,27.38
2022-08-09T14:50:30.785Z,27.40
2022-08-09T14:53:00.559Z,27.35
2022-08-09T14:55:32.548Z,27.38
2022-08-09T14:58:05.793Z,27.32
2022-08-09T15:00:37.312Z,27.16
2022-08-09T15:03:12.260Z,27.11
2022-08-09T15:05:52.621Z,27.04
2022-08-09T15:08:30.342Z,26.96
2022-08-09T15:11:04.882Z,26.90
2022-08-09T15:13:56.281Z,26.81
2022-08-09T15:16:30.614Z,26.70
2022-08-09T15:19:05.792Z,26.64
2022-08-09T15:21:55.524Z,26.45
2022-08-09T15:24:29.382Z,26.41
2022-08-09T15:26:59.511Z,26.39
2022-08-09T15:30:56.162Z,26.27
2022-08-09T15:32:28.862Z,26.25
2022-08-09T15:35:01.067Z,26.24
2022-08-09T15:37:57.461Z,26.23
2022-08-09T15:40:32.005Z,26.14
2022-08-09T15:43:02.828Z,26.12
2022-08-09T15:46:07.941Z,26.07
2022-08-09T15:48:29.372Z,26.07
2022-08-09T15:51:01.004Z,26.07
2022-08-09T15:54:05.071Z,26.06
2022-08-09T15:56:21.368Z,26.06
2022-08-09T15:58:58.051Z,26.09
2022-08-09T16:01:27.342Z,26.11
2022-08-09T16:04:00.858Z,26.14
2022-08-09T16:06:35.352Z,26.14
2022-08-09T16:09:07.964Z,26.17
2022-08-09T16:11:37.326Z,26.17
2022-08-09T16:14:09.351Z,26.17
2022-08-09T16:16:48.059Z,26.20
2022-08-09T16:19:18.094Z,26.20
2022-08-09T16:21:51.986Z,26.19
2022-08-09T16:24:32.811Z,26.15
2022-08-09T16:27:04.820Z,26.15
2022-08-09T16:29:36.685Z,26.18
2022-08-09T16:32:18.710Z,26.14
2022-08-09T16:34:58.098Z,26.11
2022-08-09T16:37:55.867Z,26.10
2022-08-09T16:40:29.931Z,26.13
2022-08-09T16:43:08.661Z,26.15
2022-08-09T16:45:44.316Z,26.13
2022-08-09T16:48:50.531Z,26.06
2022-08-09T16:51:08.009Z,26.05
2022-08-09T16:53:56.308Z,26.04
2022-08-09T16:56:30.465Z,25.99
2022-08-09T16:59:01.624Z,25.92
2022-08-09T17:01:39.555Z,25.86
2022-08-09T17:04:25.415Z,25.84
2022-08-09T17:08:44.165Z,25.80
2022-08-09T17:09:47.302Z,25.77
2022-08-09T17:12:17.560Z,25.70
2022-08-09T17:14:48.567Z,25.62
2022-08-09T17:17:27.345Z,25.61
2022-08-09T17:20:29.705Z,25.53
2022-08-09T17:22:52.246Z,25.52
2022-08-09T17:25:23.668Z,25.47
2022-08-09T17:27:54.166Z,25.45
2022-08-09T17:30:30.743Z,25.42
2022-08-09T17:33:05.469Z,25.37
2022-08-09T17:35:51.372Z,25.35
2022-08-09T17:38:34.216Z,25.32
2022-08-09T17:41:10.927Z,25.27
2022-08-09T17:43:50.591Z,25.24
2022-08-09T17:46:34.203Z,25.22
2022-08-09T17:49:03.756Z,25.21
2022-08-09T17:51:34.327Z,25.15
2022-08-09T17:54:05.267Z,25.07
2022-08-09T17:56:35.473Z,25.01
2022-08-09T17:59:09.334Z,24.99
2022-08-09T18:02:06.434Z,24.96
2022-08-09T18:04:30.402Z,24.89
2022-08-09T18:06:59.689Z,24.81
2022-08-09T18:09:40.688Z,24.76
2022-08-09T18:12:19.618Z,24.71
2022-08-09T18:14:56.569Z,24.65
2022-08-09T18:18:02.657Z,24.62
2022-08-09T18:20:56.016Z,24.56
2022-08-09T18:24:08.775Z,24.51
2022-08-09T18:25:58.087Z,24.47
2022-08-09T18:30:34.742Z,24.45
2022-08-09T18:31:25.051Z,24.36
2022-08-09T18:34:08.881Z,24.31
2022-08-09T18:36:38.251Z,24.24
2022-08-09T18:39:15.962Z,24.18
2022-08-09T18:41:52.588Z,24.13
2022-08-09T18:44:25.695Z,24.07
2022-08-09T18:47:08.329Z,24.00
2022-08-09T18:49:46.483Z,23.94
2022-08-09T18:52:24.960Z,23.85
2022-08-09T18:54:57.937Z,23.80
2022-08-09T18:57:43.150Z,23.75
2022-08-09T19:00:16.613Z,23.68
2022-08-09T19:02:51.313Z,23.59
2022-08-09T19:05:41.528Z,23.50
2022-08-09T19:08:19.766Z,23.41
2022-08-09T19:10:49.396Z,23.33
2022-08-09T19:13:38.321Z,23.23
2022-08-09T19:16:10.209Z,23.16
2022-08-09T19:18:45.539Z,23.07
2022-08-09T19:21:15.376Z,22.97
2022-08-09T19:24:35.917Z,22.86
2022-08-09T19:26:38.564Z,22.75
2022-08-09T19:29:18.294Z,22.67
2022-08-09T19:31:51.699Z,22.57
2022-08-09T19:34:24.392Z,22.50
2022-08-09T19:36:57.922Z,22.40
2022-08-09T19:39:43.196Z,22.31
2022-08-09T19:42:19.535Z,22.21
2022-08-09T19:44:51.274Z,22.12
2022-08-09T19:47:26.938Z,22.03
2022-08-09T19:50:08.424Z,21.92
2022-08-09T19:52:49.746Z,21.81
2022-08-09T19:55:30.586Z,21.72
2022-08-09T19:58:00.358Z,21.61
2022-08-09T20:00:29.943Z,21.55
2022-08-09T20:04:10.091Z,21.46
2022-08-09T20:05:50.552Z,21.39
2022-08-09T20:08:24.966Z,21.33
2022-08-09T20:11:04.890Z,21.21
2022-08-09T20:13:37.553Z,21.14
2022-08-09T20:16:38.147Z,21.06
2022-08-09T20:19:41.901Z,20.99
2022-08-09T20:21:56.332Z,20.90
2022-08-09T20:24:31.822Z,20.85
2022-08-09T20:27:08.255Z,20.80
2022-08-09T20:29:40.873Z,20.71
2022-08-09T20:32:29.749Z,20.61
2022-08-09T20:35:05.706Z,20.38
2022-08-09T20:38:18.661Z,20.28
2022-08-09T20:40:27.761Z,20.19
2022-08-09T20:43:00.131Z,20.18
2022-08-09T20:45:59.461Z,20.15
2022-08-09T20:48:32.083Z,20.13
2022-08-09T20:51:03.110Z,20.10
2022-08-09T20:53:37.478Z,20.04
2022-08-09T20:56:17.351Z,19.94
2022-08-09T20:58:57.844Z,19.92
2022-08-09T21:01:34.767Z,19.88
2022-08-09T21:05:49.589Z,19.82
2022-08-09T21:07:12.477Z,19.77
2022-08-09T21:09:56.631Z,19.72
2022-08-09T21:15:23.616Z,19.55
2022-08-09T21:18:21.221Z,19.51
2022-08-09T21:20:54.408Z,19.45
2022-08-09T21:23:26.610Z,19.40
2022-08-09T21:26:15.467Z,19.30
2022-08-09T21:28:56.955Z,19.25
2022-08-09T21:31:49.346Z,19.18
2022-08-09T21:34:28.829Z,19.10
2022-08-09T21:36:59.117Z,19.05
2022-08-09T21:39:41.646Z,19.00
2022-08-09T21:42:12.976Z,18.97
2022-08-09T21:44:45.160Z,18.90
2022-08-09T21:47:29.888Z,18.85
2022-08-09T21:50:00.479Z,18.79
2022-08-09T21:52:29.704Z,18.67
2022-08-09T21:55:04.565Z,18.62
2022-08-09T21:57:38.585Z,18.56
2022-08-09T22:00:36.577Z,18.50
2022-08-09T22:03:16.544Z,18.44
2022-08-09T22:05:55.282Z,18.37
2022-08-09T22:08:28.335Z,18.31
2022-08-09T22:11:00.602Z,18.26
2022-08-09T22:13:47.769Z,18.20
2022-08-09T22:16:19.457Z,18.14
2022-08-09T22:18:53.949Z,18.10
2022-08-09T22:21:50.194Z,17.91
2022-08-09T22:24:24.086Z,17.87
2022-08-09T22:26:54.216Z,17.81
2022-08-09T22:29:32.415Z,17.77
2022-08-09T22:32:29.976Z,17.74
2022-08-09T22:35:06.148Z,17.73
2022-08-09T22:37:37.492Z,17.65
2022-08-09T22:40:10.821Z,17.63
2022-08-09T22:42:49.505Z,17.63
2022-08-09T22:48:10.227Z,17.62
2022-08-09T22:48:29.768Z,17.61
2022-08-09T22:50:57.772Z,17.57
2022-08-09T22:53:33.313Z,17.53
2022-08-09T22:56:31.077Z,17.47
2022-08-09T22:59:05.917Z,17.38
2022-08-09T23:01:52.588Z,17.33
2022-08-09T23:04:22.067Z,17.27
2022-08-09T23:07:10.902Z,17.16
2022-08-09T23:09:40.998Z,17.16
2022-08-09T23:12:10.452Z,17.09
2022-08-09T23:14:41.983Z,17.01
2022-08-09T23:17:11.874Z,17.01
2022-08-09T23:20:06.365Z,17.02
2022-08-09T23:22:30.616Z,17.03
2022-08-09T23:24:59.903Z,17.00
2022-08-09T23:27:29.130Z,16.98
2022-08-09T23:29:58.419Z,16.95
2022-08-09T23:32:27.831Z,16.94
2022-08-09T23:34:57.050Z,16.93
2022-08-09T23:37:26.476Z,16.89
2022-08-09T23:39:55.765Z,16.85
2022-08-09T23:42:25.025Z,16.76
2022-08-09T23:44:54.263Z,16.67
2022-08-09T23:47:23.521Z,16.60
2022-08-09T23:49:52.796Z,16.53
2022-08-09T23:52:33.877Z,16.49
2022-08-09T23:55:03.222Z,16.42
2022-08-09T23:57:33.423Z,16.40
